Sunisa Naree — HSLS — position and weather

sailwx.info

Track history (hours):
 
Tides and Currents Weather Stations Pressure Air Temp Water Temp Dewpoint Dewpoint Depression Visibility Wind Speed Wind Dir Waves Ship Positions

Sunisa Naree

Last reported at 2017-Oct-19 16:18 UTC. Time now 2017-Oct-19 18:23 UTC.
Position N 35°52' E 030°14'.

Length 199 m; draft 8.7 m.

Type: Cargo ship. MMSI: 567111000.

Date/timePositionNaut miles runAvg speedWind from/ knotsBaromVisibWave heightAir tempDewpointWater temp
2017-Oct-19 16:18N 35°52' E 030°14'512.8
2017-Oct-19 15:57N 35°52' E 030°19'613.0
2017-Oct-19 15:30N 35°53' E 030°26'713.1
2017-Oct-19 15:00N 35°53' E 030°34'713.3
2017-Oct-19 14:30N 35°53' E 030°43'713.5
2017-Oct-19 14:00N 35°53' E 030°51'713.4
2017-Oct-19 13:30N 35°53' E 030°59'713.1
2017-Oct-19 13:00N 35°53' E 031°07'712.9
2017-Oct-19 12:30N 35°53' E 031°15'612.8
2017-Oct-19 12:00N 35°53' E 031°23'612.8
2017-Oct-19 11:30N 35°54' E 031°31'612.9
2017-Oct-19 11:00N 35°54' E 031°39'613.0
2017-Oct-19 10:30N 35°54' E 031°47'713.1
2017-Oct-19 10:00N 35°54' E 031°55'713.3
2017-Oct-19 09:30N 35°54' E 032°03'  
Track history (hours):
 
Tides and Currents Weather Stations Pressure Air Temp Water Temp Dewpoint Dewpoint Depression Visibility Wind Speed Wind Dir Waves Ship Positions

Sunisa Naree

Last reported at 2017-Oct-19 16:18 UTC. Time now 2017-Oct-19 18:23 UTC.
Position N 35°52' E 030°14'.

Length 199 m; draft 8.7 m.

Type: Cargo ship. MMSI: 567111000.

Date/timePositionNaut miles runAvg speedWind from/ knotsBaromVisibWave heightAir tempDewpointWater temp
2017-Oct-19 16:18N 35°52' E 030°14'512.8
2017-Oct-19 15:57N 35°52' E 030°19'613.0
2017-Oct-19 15:30N 35°53' E 030°26'713.1
2017-Oct-19 15:00N 35°53' E 030°34'713.3
2017-Oct-19 14:30N 35°53' E 030°43'713.5
2017-Oct-19 14:00N 35°53' E 030°51'713.4
2017-Oct-19 13:30N 35°53' E 030°59'713.1
2017-Oct-19 13:00N 35°53' E 031°07'712.9
2017-Oct-19 12:30N 35°53' E 031°15'612.8
2017-Oct-19 12:00N 35°53' E 031°23'612.8
2017-Oct-19 11:30N 35°54' E 031°31'612.9
2017-Oct-19 11:00N 35°54' E 031°39'613.0
2017-Oct-19 10:30N 35°54' E 031°47'713.1
2017-Oct-19 10:00N 35°54' E 031°55'713.3
2017-Oct-19 09:30N 35°54' E 032°03'  

Dump ship's entire track history